createdAt,value
2019-05-07T00:02:16.092Z,7.23
2019-05-07T00:04:46.457Z,7.73
2019-05-07T00:07:16.715Z,7.27
2019-05-07T00:37:07.299Z,7.07
2019-05-07T00:40:15.508Z,7.93
2019-05-07T00:43:09.211Z,7.37
2019-05-07T00:46:22.595Z,6.97
2019-05-07T00:49:02.261Z,7.33
2019-05-07T00:51:52.248Z,7.83
2019-05-07T00:54:42.320Z,8.13
2019-05-07T00:57:34.186Z,7.63
2019-05-07T01:00:06.954Z,7.60
2019-05-07T01:03:02.911Z,7.43
2019-05-07T01:05:52.753Z,7.00
2019-05-07T01:09:03.175Z,7.40
2019-05-07T01:11:35.240Z,7.40
2019-05-07T01:14:26.007Z,8.10
2019-05-07T01:16:56.238Z,7.30
2019-05-07T01:19:45.814Z,7.27
2019-05-07T01:22:35.082Z,7.77
2019-05-07T01:25:05.865Z,7.80
2019-05-07T01:27:40.089Z,7.80
2019-05-07T01:30:29.407Z,7.83
2019-05-07T01:36:02.316Z,7.93
2019-05-07T01:38:52.234Z,7.50
2019-05-07T01:41:42.075Z,8.50
2019-05-07T01:44:32.537Z,7.80
2019-05-07T01:47:03.741Z,7.83
2019-05-07T01:49:35.094Z,8.00
2019-05-07T01:54:55.409Z,8.13
2019-05-07T01:57:25.768Z,8.43
2019-05-07T01:59:56.538Z,8.23
2019-05-07T02:02:38.395Z,8.30
2019-05-07T02:05:27.775Z,8.73
2019-05-07T02:11:12.882Z,7.80
2019-05-07T02:14:02.452Z,7.73
2019-05-07T02:16:52.900Z,8.10
2019-05-07T02:19:43.050Z,8.50
2019-05-07T02:22:32.491Z,7.83
2019-05-07T02:25:22.263Z,9.10
2019-05-07T02:28:12.844Z,8.87
2019-05-07T02:31:04.137Z,7.70
2019-05-07T02:33:35.133Z,8.37
2019-05-07T02:39:33.264Z,8.03
2019-05-07T02:42:04.060Z,8.13
2019-05-07T02:45:13.324Z,8.90
2019-05-07T02:47:44.015Z,9.07
2019-05-07T02:53:43.118Z,8.10
2019-05-07T02:56:33.451Z,9.73
2019-05-07T02:59:44.026Z,9.00
2019-05-07T03:02:25.669Z,9.20
2019-05-07T03:05:06.915Z,9.50
2019-05-07T03:07:53.223Z,8.73
2019-05-07T03:10:34.619Z,9.23
2019-05-07T03:13:17.106Z,9.50
2019-05-07T03:15:58.512Z,9.17
2019-05-07T03:18:43.539Z,9.80
2019-05-07T03:21:23.915Z,9.07
2019-05-07T03:24:14.831Z,9.60
2019-05-07T03:26:46.452Z,10.27
2019-05-07T03:29:37.382Z,10.23
2019-05-07T03:32:27.806Z,9.23
2019-05-07T03:35:38.102Z,9.20
2019-05-07T03:38:27.519Z,9.67
2019-05-07T03:41:18.753Z,9.27
2019-05-07T03:43:53.437Z,9.17
2019-05-07T03:46:23.799Z,9.37
2019-05-07T03:48:54.354Z,9.60
2019-05-07T03:51:24.631Z,9.90
2019-05-07T03:53:54.886Z,9.90
2019-05-07T03:56:25.521Z,8.37
2019-05-07T03:59:14.945Z,9.03
2019-05-07T04:01:45.281Z,9.47
2019-05-07T04:04:16.473Z,9.23
2019-05-07T04:06:49.039Z,10.33
2019-05-07T04:09:38.328Z,9.53
2019-05-07T04:12:08.804Z,10.40
2019-05-07T04:14:58.108Z,10.13
2019-05-07T04:17:47.402Z,9.00
2019-05-07T04:20:18.209Z,9.80
2019-05-07T04:23:07.487Z,8.63
2019-05-07T04:28:54.128Z,8.90
2019-05-07T04:31:37.000Z,9.60
2019-05-07T04:34:45.568Z,9.53
2019-05-07T04:37:34.765Z,10.57
2019-05-07T04:40:05.143Z,9.03
2019-05-07T04:42:54.401Z,9.27
2019-05-07T04:45:24.651Z,8.50
2019-05-07T04:48:14.475Z,8.77
2019-05-07T04:54:03.291Z,9.03
2019-05-07T04:56:53.147Z,8.83
2019-05-07T04:59:43.103Z,9.03
2019-05-07T05:05:12.691Z,8.20
2019-05-07T05:07:43.179Z,8.30
2019-05-07T05:10:22.693Z,8.73
2019-05-07T05:13:12.934Z,8.47
2019-05-07T05:16:03.757Z,9.63
2019-05-07T05:18:53.486Z,9.27
2019-05-07T05:21:42.689Z,8.70
2019-05-07T05:24:37.645Z,8.57
2019-05-07T05:27:30.037Z,8.73
2019-05-07T05:29:59.676Z,8.63
2019-05-07T05:32:32.438Z,8.83
2019-05-07T05:35:08.568Z,8.50
2019-05-07T05:38:22.273Z,9.07
2019-05-07T05:41:16.698Z,8.20
2019-05-07T05:47:16.404Z,8.27
2019-05-07T05:56:22.887Z,8.87
2019-05-07T05:59:47.434Z,9.40
2019-05-07T06:02:44.026Z,8.87
2019-05-07T06:05:34.428Z,9.63
2019-05-07T06:08:24.094Z,9.60
2019-05-07T06:11:33.636Z,9.67
2019-05-07T06:14:23.058Z,10.40
2019-05-07T06:17:13.545Z,9.43
2019-05-07T06:20:12.144Z,8.87
2019-05-07T06:23:02.977Z,8.63
2019-05-07T06:25:33.571Z,9.67
2019-05-07T06:28:10.037Z,9.43
2019-05-07T06:30:59.346Z,9.80
2019-05-07T06:33:52.316Z,9.13
2019-05-07T06:36:22.965Z,8.93
2019-05-07T06:45:24.570Z,9.40
2019-05-07T06:51:25.289Z,8.67
2019-05-07T06:54:19.586Z,7.80
2019-05-07T06:56:51.910Z,7.20
2019-05-07T07:02:29.001Z,6.97
2019-05-07T07:05:18.133Z,6.60
2019-05-07T07:07:58.552Z,9.27
2019-05-07T07:11:09.811Z,7.57
2019-05-07T07:13:42.665Z,6.73
2019-05-07T07:16:23.494Z,6.50
2019-05-07T07:18:55.801Z,5.93
2019-05-07T07:21:25.903Z,6.17
2019-05-07T07:23:56.491Z,5.70
2019-05-07T07:32:13.175Z,5.80
2019-05-07T07:37:58.954Z,5.30
2019-05-07T07:40:52.776Z,5.80
2019-05-07T07:43:42.471Z,5.63
2019-05-07T07:46:16.675Z,5.70
2019-05-07T07:49:11.279Z,6.30
2019-05-07T07:51:57.586Z,5.93
2019-05-07T07:54:47.866Z,6.77
2019-05-07T07:57:37.011Z,5.63
2019-05-07T08:00:29.961Z,5.80
2019-05-07T08:05:39.440Z,5.50
2019-05-07T08:08:28.723Z,5.73
2019-05-07T08:11:39.787Z,5.37
2019-05-07T08:14:29.082Z,4.60
2019-05-07T08:17:02.252Z,5.07
2019-05-07T08:19:32.933Z,5.13
2019-05-07T08:22:28.803Z,5.07
2019-05-07T08:25:18.303Z,4.60
2019-05-07T08:28:23.181Z,5.17
2019-05-07T08:31:19.983Z,5.03
2019-05-07T08:33:59.268Z,4.80
2019-05-07T08:36:29.490Z,4.63
2019-05-07T08:38:59.884Z,4.03
2019-05-07T08:41:49.213Z,3.67
2019-05-07T08:44:57.407Z,3.57
2019-05-07T08:47:49.906Z,3.90
2019-05-07T08:50:48.820Z,2.90
2019-05-07T08:53:23.805Z,3.53
2019-05-07T08:55:54.329Z,2.90
2019-05-07T08:58:43.767Z,3.50
2019-05-07T09:01:33.292Z,3.70
2019-05-07T09:04:14.968Z,3.60
2019-05-07T09:06:59.463Z,4.07
2019-05-07T09:09:39.648Z,3.80
2019-05-07T09:15:59.107Z,3.80
2019-05-07T09:18:52.401Z,4.20
2019-05-07T09:21:42.910Z,3.90
2019-05-07T09:24:13.255Z,3.97
2019-05-07T09:27:02.906Z,3.53
2019-05-07T09:30:12.834Z,4.87
2019-05-07T09:35:52.952Z,3.87
2019-05-07T09:38:23.314Z,4.40
2019-05-07T09:40:56.870Z,4.07
2019-05-07T09:43:48.489Z,4.03
2019-05-07T09:46:16.965Z,3.57
2019-05-07T09:49:06.357Z,3.43
2019-05-07T09:51:55.587Z,3.37
2019-05-07T09:54:26.480Z,4.17
2019-05-07T09:57:27.325Z,3.33
2019-05-07T09:59:48.054Z,3.63
2019-05-07T10:02:18.313Z,4.30
2019-05-07T10:04:52.713Z,3.70
2019-05-07T10:07:23.995Z,3.13
2019-05-07T10:10:13.821Z,3.73
2019-05-07T10:13:42.005Z,3.40
2019-05-07T10:16:41.839Z,3.10
2019-05-07T10:22:08.674Z,3.60
2019-05-07T10:25:02.938Z,3.23
2019-05-07T10:28:12.523Z,3.40
2019-05-07T10:34:04.450Z,4.63
2019-05-07T10:36:46.091Z,4.70
2019-05-07T10:39:35.097Z,5.20
2019-05-07T10:42:28.816Z,5.13
2019-05-07T10:45:33.391Z,5.37
2019-05-07T10:48:32.047Z,5.60
2019-05-07T10:51:21.792Z,4.13
2019-05-07T10:57:19.858Z,4.67
2019-05-07T11:02:54.544Z,4.50
2019-05-07T11:05:36.098Z,4.50
2019-05-07T11:08:18.288Z,4.50
2019-05-07T11:11:00.314Z,4.43
2019-05-07T11:13:42.366Z,4.73
2019-05-07T11:16:26.006Z,5.13
2019-05-07T11:19:12.773Z,4.20
2019-05-07T11:21:54.956Z,4.77
2019-05-07T11:24:36.241Z,4.80
2019-05-07T11:27:16.393Z,4.87
2019-05-07T11:30:07.374Z,4.17
2019-05-07T11:32:39.768Z,4.10
2019-05-07T11:35:31.929Z,3.80
2019-05-07T11:38:24.982Z,3.90
2019-05-07T11:40:57.252Z,3.57
2019-05-07T11:44:05.445Z,3.50
2019-05-07T11:47:13.948Z,3.83
2019-05-07T11:50:25.524Z,3.30
2019-05-07T11:56:28.394Z,3.27
2019-05-07T11:59:22.018Z,2.80
2019-05-07T12:02:12.113Z,2.87
2019-05-07T12:05:22.561Z,2.97
2019-05-07T12:08:14.329Z,2.97
2019-05-07T12:11:03.577Z,3.00
2019-05-07T12:13:57.029Z,3.03
2019-05-07T12:16:43.911Z,4.17
2019-05-07T12:19:36.052Z,4.23
2019-05-07T12:25:19.500Z,3.80
2019-05-07T12:28:08.940Z,4.00
2019-05-07T12:30:58.510Z,4.13
2019-05-07T12:34:11.924Z,3.87
2019-05-07T12:37:01.678Z,3.70
2019-05-07T12:39:32.468Z,3.13
2019-05-07T12:42:08.549Z,3.53
2019-05-07T12:45:02.845Z,4.17
2019-05-07T12:47:53.012Z,3.80
2019-05-07T12:50:43.639Z,3.60
2019-05-07T12:53:52.464Z,3.93
2019-05-07T12:57:02.533Z,3.67
2019-05-07T12:59:54.049Z,3.93
2019-05-07T13:05:59.527Z,3.50
2019-05-07T13:08:43.242Z,4.33
2019-05-07T13:11:13.853Z,5.37
2019-05-07T13:13:44.161Z,4.23
2019-05-07T13:16:36.381Z,3.60
2019-05-07T13:23:17.491Z,3.50
2019-05-07T13:25:28.173Z,3.17
2019-05-07T13:28:18.162Z,3.67
2019-05-07T13:30:52.639Z,3.43
2019-05-07T13:33:23.879Z,3.67
2019-05-07T13:36:13.191Z,3.30
2019-05-07T13:39:05.108Z,3.40
2019-05-07T13:42:13.609Z,3.10
2019-05-07T13:45:22.454Z,3.03
2019-05-07T13:48:14.192Z,3.00
2019-05-07T13:50:48.673Z,3.00
2019-05-07T13:53:56.865Z,3.00
2019-05-07T13:56:48.890Z,3.17
2019-05-07T13:59:19.173Z,2.97
2019-05-07T14:02:25.823Z,2.90
2019-05-07T14:04:56.989Z,2.80
2019-05-07T14:07:43.054Z,2.97
2019-05-07T14:10:03.931Z,2.90
2019-05-07T14:12:37.089Z,3.20
2019-05-07T14:15:28.089Z,2.80
2019-05-07T14:18:18.937Z,2.80
2019-05-07T14:21:26.987Z,3.00
2019-05-07T14:23:57.270Z,3.43
2019-05-07T14:29:57.283Z,3.57
2019-05-07T14:32:46.494Z,3.20
2019-05-07T14:35:39.100Z,3.13
2019-05-07T14:38:52.093Z,3.07
2019-05-07T14:42:04.469Z,3.00
2019-05-07T14:45:05.886Z,3.00
2019-05-07T14:47:45.287Z,3.27
2019-05-07T14:53:24.853Z,3.10
2019-05-07T14:56:14.939Z,2.63
2019-05-07T15:02:03.639Z,3.10
2019-05-07T15:04:53.096Z,2.80
2019-05-07T15:07:23.887Z,2.93
2019-05-07T15:10:13.296Z,3.20
2019-05-07T15:13:07.800Z,3.17
2019-05-07T15:15:57.226Z,2.73
2019-05-07T15:19:05.447Z,3.20
2019-05-07T15:22:13.658Z,2.90
2019-05-07T15:25:02.888Z,3.10
2019-05-07T15:27:34.134Z,3.60
2019-05-07T15:33:44.880Z,3.43
2019-05-07T15:36:34.999Z,3.80
2019-05-07T15:39:24.396Z,3.50
2019-05-07T15:42:13.701Z,3.20
2019-05-07T15:45:04.762Z,3.93
2019-05-07T15:47:56.180Z,3.13
2019-05-07T15:53:55.007Z,4.20
2019-05-07T15:56:47.443Z,4.33
2019-05-07T15:59:36.815Z,4.93
2019-05-07T16:02:35.923Z,4.77
2019-05-07T16:07:57.282Z,4.30
2019-05-07T16:10:38.968Z,3.80
2019-05-07T16:13:39.112Z,3.60
2019-05-07T16:16:02.111Z,3.07
2019-05-07T16:19:12.635Z,4.70
2019-05-07T16:21:43.873Z,4.07
2019-05-07T16:24:33.477Z,3.90
2019-05-07T16:27:25.746Z,3.40
2019-05-07T16:36:15.774Z,3.60
2019-05-07T16:39:06.049Z,3.87
2019-05-07T16:41:57.098Z,4.20
2019-05-07T16:44:47.079Z,3.50
2019-05-07T16:47:39.534Z,3.37
2019-05-07T16:50:28.822Z,3.57
2019-05-07T16:53:37.143Z,3.90
2019-05-07T16:56:26.796Z,4.20
2019-05-07T17:05:15.292Z,5.30
2019-05-07T17:11:05.853Z,3.87
2019-05-07T17:13:55.414Z,4.20
2019-05-07T17:16:26.145Z,4.10
2019-05-07T17:19:17.967Z,4.20
2019-05-07T17:21:48.676Z,5.00
2019-05-07T17:24:19.051Z,3.60
2019-05-07T17:26:51.839Z,3.60
2019-05-07T17:29:49.140Z,4.07
2019-05-07T17:32:41.914Z,3.83
2019-05-07T17:38:09.889Z,3.67
2019-05-07T17:40:39.176Z,3.80
2019-05-07T17:43:12.320Z,4.00
2019-05-07T17:45:43.124Z,4.07
2019-05-07T17:52:15.734Z,3.90
2019-05-07T17:54:50.282Z,3.93
2019-05-07T17:57:44.821Z,4.10
2019-05-07T18:00:35.637Z,4.23
2019-05-07T18:03:35.602Z,4.37
2019-05-07T18:06:34.782Z,4.60
2019-05-07T18:09:24.114Z,3.67
2019-05-07T18:11:56.547Z,4.83
2019-05-07T18:14:49.858Z,4.87
2019-05-07T18:17:42.069Z,4.83
2019-05-07T18:20:32.812Z,4.40
2019-05-07T18:23:16.677Z,4.40
2019-05-07T18:25:44.461Z,4.20
2019-05-07T18:28:17.916Z,4.50
2019-05-07T18:30:54.735Z,4.63
2019-05-07T18:33:41.752Z,5.10
2019-05-07T18:36:12.599Z,5.07
2019-05-07T18:38:44.618Z,4.90
2019-05-07T18:41:17.703Z,5.23
2019-05-07T18:43:52.071Z,3.97
2019-05-07T18:46:24.197Z,4.63
2019-05-07T18:48:55.625Z,4.17
2019-05-07T18:51:32.194Z,5.20
2019-05-07T18:54:02.730Z,4.80
2019-05-07T18:56:52.876Z,3.50
2019-05-07T18:59:43.451Z,3.87
2019-05-07T19:02:16.991Z,3.23
2019-05-07T19:04:47.601Z,3.77
2019-05-07T19:07:22.817Z,4.10
2019-05-07T19:10:35.140Z,4.33
2019-05-07T19:13:33.749Z,3.87
2019-05-07T19:16:27.631Z,3.47
2019-05-07T19:19:16.766Z,3.97
2019-05-07T19:22:06.228Z,4.03
2019-05-07T19:28:12.759Z,3.40
2019-05-07T19:30:43.940Z,4.10
2019-05-07T19:33:33.191Z,4.20
2019-05-07T19:36:22.517Z,3.40
2019-05-07T19:39:12.635Z,3.20
2019-05-07T19:42:06.292Z,4.10
2019-05-07T19:48:00.091Z,3.70
2019-05-07T19:51:08.412Z,4.03
2019-05-07T19:53:43.823Z,3.97
2019-05-07T19:56:33.462Z,4.33
2019-05-07T19:59:09.266Z,3.57
2019-05-07T20:01:44.750Z,4.17
2019-05-07T20:04:15.142Z,3.80
2019-05-07T20:07:07.930Z,4.27
2019-05-07T20:09:49.512Z,4.17
2019-05-07T20:12:33.597Z,3.90
2019-05-07T20:15:06.838Z,3.90
2019-05-07T20:17:42.164Z,3.90
2019-05-07T20:20:36.696Z,4.17
2019-05-07T20:26:36.045Z,3.57
2019-05-07T20:29:27.233Z,3.67
2019-05-07T20:32:04.247Z,4.10
2019-05-07T20:34:53.622Z,3.90
2019-05-07T20:38:16.240Z,3.83
2019-05-07T20:40:55.784Z,4.00
2019-05-07T20:43:28.180Z,3.73
2019-05-07T20:46:20.577Z,3.90
2019-05-07T20:48:52.609Z,3.90
2019-05-07T20:51:52.777Z,4.30
2019-05-07T20:54:46.049Z,5.20
2019-05-07T20:57:39.256Z,4.43
2019-05-07T21:00:29.782Z,4.40
2019-05-07T21:05:55.049Z,4.23
2019-05-07T21:08:25.936Z,4.80
2019-05-07T21:11:17.936Z,5.13
2019-05-07T21:13:52.333Z,4.53
2019-05-07T21:16:42.538Z,4.37
2019-05-07T21:19:33.088Z,4.67
2019-05-07T21:22:23.346Z,4.53
2019-05-07T21:25:41.495Z,4.67
2019-05-07T21:27:52.886Z,4.80
2019-05-07T21:30:42.689Z,4.50
2019-05-07T21:36:05.122Z,5.93
2019-05-07T21:39:02.160Z,4.47
2019-05-07T21:41:55.121Z,4.60
2019-05-07T21:44:44.971Z,4.43
2019-05-07T21:50:56.525Z,4.57
2019-05-07T21:59:43.200Z,4.73
2019-05-07T22:02:17.832Z,4.67
2019-05-07T22:05:11.781Z,4.90
2019-05-07T22:08:01.823Z,4.83
2019-05-07T22:10:51.500Z,4.83
2019-05-07T22:13:43.479Z,4.90
2019-05-07T22:16:37.163Z,5.17
2019-05-07T22:19:26.719Z,5.23
2019-05-07T22:22:38.479Z,4.83
2019-05-07T22:25:46.704Z,4.93
2019-05-07T22:28:17.193Z,5.50
2019-05-07T22:34:02.200Z,5.20
2019-05-07T22:36:52.117Z,4.77
2019-05-07T22:39:43.816Z,5.13
2019-05-07T22:42:53.671Z,5.90
2019-05-07T22:45:42.994Z,5.27
2019-05-07T22:48:32.587Z,5.30
2019-05-07T22:52:02.188Z,5.83
2019-05-07T22:54:32.185Z,5.17
2019-05-07T22:57:42.044Z,5.73
2019-05-07T23:00:51.223Z,5.40
2019-05-07T23:03:23.186Z,6.60
2019-05-07T23:06:13.634Z,6.20
2019-05-07T23:08:45.054Z,5.67
2019-05-07T23:11:37.124Z,5.30
2019-05-07T23:14:13.988Z,5.87
2019-05-07T23:17:22.052Z,6.03
2019-05-07T23:26:00.391Z,5.47
2019-05-07T23:28:32.325Z,6.10
2019-05-07T23:31:22.900Z,5.87
2019-05-07T23:34:32.724Z,5.90
2019-05-07T23:41:14.777Z,6.00
2019-05-07T23:44:04.291Z,5.93
2019-05-07T23:50:23.960Z,5.93
2019-05-07T23:58:48.254Z,6.43
